createdAt,value
2023-05-16T00:01:35.710Z,66.12
2023-05-16T00:06:38.774Z,61.96
2023-05-16T00:11:41.746Z,56.53
2023-05-16T00:16:44.895Z,57.66
2023-05-16T00:21:47.844Z,60.33
2023-05-16T00:26:50.836Z,63.65
2023-05-16T00:31:53.829Z,66.18
2023-05-16T00:36:56.796Z,60.12
2023-05-16T00:41:59.779Z,56.60
2023-05-16T00:47:03.769Z,58.96
2023-05-16T00:52:07.062Z,61.48
2023-05-16T00:57:10.431Z,66.36
2023-05-16T01:02:14.422Z,61.87
2023-05-16T01:07:17.624Z,56.54
2023-05-16T01:13:13.658Z,57.92
2023-05-16T01:18:43.029Z,60.83
2023-05-16T01:24:00.162Z,66.50
2023-05-16T01:29:04.028Z,60.71
2023-05-16T01:34:07.034Z,56.16
2023-05-16T01:39:12.205Z,58.96
2023-05-16T01:44:47.043Z,61.59
2023-05-16T01:50:14.476Z,66.78
2023-05-16T01:55:32.323Z,60.30
2023-05-16T02:00:35.418Z,56.10
2023-05-16T02:05:38.706Z,58.98
2023-05-16T02:10:42.007Z,61.20
2023-05-16T02:15:45.823Z,66.47
2023-05-16T02:20:48.794Z,61.76
2023-05-16T02:25:51.730Z,56.20
2023-05-16T02:30:59.826Z,57.55
2023-05-16T02:36:02.815Z,60.03
2023-05-16T02:41:05.888Z,62.10
2023-05-16T02:46:27.953Z,67.37
2023-05-16T02:51:31.524Z,60.87
2023-05-16T02:56:34.465Z,55.36
2023-05-16T03:01:37.870Z,57.45
2023-05-16T03:06:40.850Z,59.43
2023-05-16T03:11:43.898Z,60.39
2023-05-16T03:16:47.684Z,61.73
2023-05-16T03:21:50.656Z,68.22
2023-05-16T03:26:53.602Z,61.70
2023-05-16T03:31:57.102Z,55.66
2023-05-16T03:37:00.359Z,55.42
2023-05-16T03:42:03.601Z,54.67
2023-05-16T03:47:06.507Z,54.71
2023-05-16T03:52:09.307Z,54.01
2023-05-16T03:57:12.614Z,52.67
2023-05-16T04:02:17.424Z,50.62
2023-05-16T04:07:23.830Z,50.84
2023-05-16T04:12:26.961Z,53.03
2023-05-16T04:17:30.281Z,55.67
2023-05-16T04:22:33.312Z,57.92
2023-05-16T04:27:36.242Z,59.43
2023-05-16T04:32:39.215Z,60.36
2023-05-16T04:37:42.595Z,58.69
2023-05-16T04:42:45.758Z,55.71
2023-05-16T04:47:51.675Z,51.68
2023-05-16T04:52:56.396Z,47.17
2023-05-16T04:57:59.554Z,44.04
2023-05-16T05:03:02.515Z,43.55
2023-05-16T05:08:06.675Z,43.81
2023-05-16T05:13:11.431Z,45.35
2023-05-16T05:18:14.709Z,46.87
2023-05-16T05:23:18.193Z,47.97
2023-05-16T05:28:21.113Z,50.09
2023-05-16T05:33:30.921Z,52.00
2023-05-16T05:38:33.924Z,53.21
2023-05-16T05:43:36.825Z,53.84
2023-05-16T05:48:39.970Z,54.82
2023-05-16T05:53:42.862Z,55.54
2023-05-16T05:58:45.879Z,56.04
2023-05-16T06:03:48.803Z,57.18
2023-05-16T06:08:51.758Z,57.10
2023-05-16T06:13:54.790Z,58.00
2023-05-16T06:18:57.920Z,58.79
2023-05-16T06:24:01.034Z,58.52
2023-05-16T06:29:04.000Z,57.48
2023-05-16T06:34:06.870Z,57.19
2023-05-16T06:39:09.840Z,57.70
2023-05-16T06:44:12.834Z,57.24
2023-05-16T06:49:15.791Z,57.68
2023-05-16T06:54:18.845Z,57.93
2023-05-16T06:59:21.790Z,57.33
2023-05-16T07:04:24.767Z,56.59
2023-05-16T07:09:27.692Z,56.42
2023-05-16T07:14:30.657Z,56.72
2023-05-16T07:19:33.836Z,57.36
2023-05-16T07:24:36.793Z,56.08
2023-05-16T07:29:39.659Z,55.68
2023-05-16T07:34:45.581Z,55.45
2023-05-16T07:39:48.549Z,56.11
2023-05-16T07:44:51.499Z,55.36
2023-05-16T07:49:54.365Z,55.83
2023-05-16T07:54:58.459Z,56.41
2023-05-16T08:00:01.712Z,56.73
2023-05-16T08:05:06.022Z,56.22
2023-05-16T08:10:11.819Z,56.14
2023-05-16T08:15:16.285Z,56.28
2023-05-16T08:20:19.170Z,55.77
2023-05-16T08:25:22.288Z,55.45
2023-05-16T08:30:26.569Z,55.78
2023-05-16T08:35:29.652Z,55.67
2023-05-16T08:40:33.107Z,54.58
2023-05-16T08:45:36.116Z,55.10
2023-05-16T08:50:39.070Z,55.01
2023-05-16T08:55:44.405Z,55.44
2023-05-16T09:00:48.521Z,55.04
2023-05-16T09:05:52.725Z,55.06
2023-05-16T09:10:55.731Z,55.10
2023-05-16T09:16:18.642Z,53.63
2023-05-16T09:21:21.747Z,54.23
2023-05-16T09:26:26.301Z,54.47
2023-05-16T09:31:38.395Z,53.84
2023-05-16T09:36:43.679Z,52.62
2023-05-16T09:41:52.560Z,52.43
2023-05-16T09:46:56.052Z,53.53
2023-05-16T09:52:04.826Z,52.75
2023-05-16T09:57:07.934Z,52.51
2023-05-16T10:02:10.974Z,52.09
2023-05-16T10:07:14.822Z,52.12
2023-05-16T10:12:17.999Z,52.63
2023-05-16T10:17:22.220Z,52.79
2023-05-16T10:22:26.372Z,51.38
2023-05-16T10:27:31.255Z,50.82
2023-05-16T10:32:34.589Z,51.16
2023-05-16T10:37:38.141Z,52.26
2023-05-16T10:42:54.736Z,51.29
2023-05-16T10:48:06.745Z,51.57
2023-05-16T10:53:13.023Z,52.68
2023-05-16T10:58:43.008Z,52.60
2023-05-16T11:04:01.136Z,53.01
2023-05-16T11:09:07.273Z,53.06
2023-05-16T11:14:17.711Z,53.51
2023-05-16T11:20:04.459Z,52.89
2023-05-16T11:25:09.651Z,51.83
2023-05-16T11:30:22.009Z,52.34
2023-05-16T11:35:25.216Z,52.23
2023-05-16T11:40:28.194Z,51.85
2023-05-16T11:45:31.083Z,51.88
2023-05-16T11:50:35.966Z,52.38
2023-05-16T11:55:42.566Z,53.20
2023-05-16T12:00:54.246Z,51.19
2023-05-16T12:05:59.663Z,51.08
2023-05-16T12:11:02.905Z,51.65
2023-05-16T12:16:06.926Z,51.72
2023-05-16T12:21:13.006Z,51.32
2023-05-16T12:26:16.357Z,51.10
2023-05-16T12:36:34.720Z,51.63
2023-05-16T12:41:43.026Z,51.89
2023-05-16T12:46:50.048Z,51.43
2023-05-16T12:51:58.676Z,51.08
2023-05-16T12:57:01.666Z,51.58
2023-05-16T13:02:08.909Z,51.60
2023-05-16T13:07:12.450Z,51.51
2023-05-16T13:12:15.923Z,51.74
2023-05-16T13:17:19.024Z,50.49
2023-05-16T13:22:22.072Z,50.84
2023-05-16T13:27:24.935Z,51.30
2023-05-16T13:32:27.984Z,51.31
2023-05-16T13:37:31.525Z,51.49
2023-05-16T13:42:34.497Z,52.10
2023-05-16T13:47:37.708Z,52.98
2023-05-16T13:52:40.879Z,53.26
2023-05-16T13:57:43.981Z,53.61
2023-05-16T14:02:46.970Z,54.65
2023-05-16T14:07:50.457Z,55.33
2023-05-16T14:12:53.432Z,54.85
2023-05-16T14:18:00.549Z,54.98
2023-05-16T14:23:04.027Z,55.10
2023-05-16T14:28:07.052Z,55.84
2023-05-16T14:33:09.958Z,55.67
2023-05-16T14:38:14.637Z,55.44
2023-05-16T14:43:20.508Z,55.52
2023-05-16T14:48:23.609Z,54.99
2023-05-16T14:53:26.850Z,55.14
2023-05-16T14:58:30.865Z,55.14
2023-05-16T15:03:46.897Z,55.65
2023-05-16T15:08:56.923Z,55.63
2023-05-16T15:14:00.588Z,55.65
2023-05-16T15:19:04.065Z,55.39
2023-05-16T15:24:08.458Z,55.57
2023-05-16T15:29:11.566Z,55.52
2023-05-16T15:34:14.408Z,55.50
2023-05-16T15:39:17.859Z,55.34
2023-05-16T15:44:21.033Z,55.48
2023-05-16T15:49:26.208Z,56.02
2023-05-16T15:54:29.683Z,55.97
2023-05-16T15:59:32.734Z,56.02
2023-05-16T16:04:35.737Z,56.10
2023-05-16T16:09:38.757Z,56.00
2023-05-16T16:14:41.740Z,56.00
2023-05-16T16:19:44.758Z,56.03
2023-05-16T16:24:47.785Z,56.31
2023-05-16T16:29:50.756Z,56.43
2023-05-16T16:34:54.419Z,56.54
2023-05-16T16:39:57.437Z,56.90
2023-05-16T16:45:00.477Z,57.02
2023-05-16T16:50:03.570Z,57.29
2023-05-16T16:55:07.527Z,57.37
2023-05-16T17:00:11.937Z,57.32
2023-05-16T17:05:14.979Z,57.57
2023-05-16T17:10:18.579Z,57.82
2023-05-16T17:15:22.239Z,57.88
2023-05-16T17:20:25.334Z,57.96
2023-05-16T17:25:29.059Z,58.11
2023-05-16T17:30:32.591Z,58.06
2023-05-16T17:35:36.042Z,58.25
2023-05-16T17:40:38.964Z,58.40
2023-05-16T17:45:42.077Z,58.56
2023-05-16T17:50:45.074Z,58.79
2023-05-16T17:55:49.710Z,59.14
2023-05-16T18:00:54.766Z,59.28
2023-05-16T18:05:57.769Z,59.57
2023-05-16T18:11:00.797Z,59.53
2023-05-16T18:16:03.908Z,59.72
2023-05-16T18:21:06.941Z,59.95
2023-05-16T18:26:09.961Z,59.95
2023-05-16T18:31:13.013Z,60.19
2023-05-16T18:36:16.073Z,60.42
2023-05-16T18:41:21.483Z,60.61
2023-05-16T18:46:24.507Z,60.64
2023-05-16T18:51:27.536Z,61.01
2023-05-16T18:56:30.581Z,61.10
2023-05-16T19:01:33.611Z,61.27
2023-05-16T19:06:38.278Z,61.37
2023-05-16T19:11:41.441Z,61.48
2023-05-16T19:16:44.518Z,61.55
2023-05-16T19:21:47.688Z,61.49
2023-05-16T19:26:50.582Z,61.53
2023-05-16T19:31:53.393Z,61.67
2023-05-16T19:36:56.219Z,61.78
2023-05-16T19:42:06.539Z,62.12
2023-05-16T19:47:09.837Z,62.16
2023-05-16T19:52:13.454Z,62.20
2023-05-16T19:57:16.413Z,62.30
2023-05-16T20:02:21.175Z,66.80
2023-05-16T20:07:27.611Z,61.16
2023-05-16T20:12:30.673Z,53.32
2023-05-16T20:17:34.215Z,54.16
2023-05-16T20:22:41.701Z,55.71
2023-05-16T20:27:44.952Z,57.18
2023-05-16T20:32:48.132Z,58.35
2023-05-16T20:37:51.071Z,60.06
2023-05-16T20:42:54.055Z,60.48
2023-05-16T20:47:57.213Z,61.50
2023-05-16T20:53:00.124Z,67.71
2023-05-16T20:58:03.105Z,65.28
2023-05-16T21:03:06.143Z,58.34
2023-05-16T21:08:09.242Z,55.62
2023-05-16T21:13:12.236Z,57.55
2023-05-16T21:18:15.358Z,59.74
2023-05-16T21:23:18.772Z,61.07
2023-05-16T21:28:21.767Z,66.64
2023-05-16T21:33:24.977Z,63.35
2023-05-16T21:38:28.020Z,58.17
2023-05-16T21:43:30.991Z,56.94
2023-05-16T21:48:34.074Z,59.54
2023-05-16T21:53:38.503Z,60.94
2023-05-16T21:58:42.527Z,61.29
2023-05-16T22:03:45.601Z,67.55
2023-05-16T22:08:48.668Z,63.75
2023-05-16T22:13:51.679Z,59.60
2023-05-16T22:18:54.788Z,56.82
2023-05-16T22:23:57.857Z,59.14
2023-05-16T22:29:01.000Z,61.43
2023-05-16T22:34:04.115Z,67.74
2023-05-16T22:39:07.278Z,64.10
2023-05-16T22:44:10.219Z,60.94
2023-05-16T22:49:13.278Z,56.59
2023-05-16T22:54:16.871Z,57.71
2023-05-16T22:59:19.835Z,60.31
2023-05-16T23:04:22.849Z,62.05
2023-05-16T23:09:25.864Z,67.67
2023-05-16T23:14:28.798Z,64.51
2023-05-16T23:19:32.155Z,61.03
2023-05-16T23:24:35.275Z,57.07
2023-05-16T23:29:38.242Z,58.70
2023-05-16T23:34:41.283Z,60.88
2023-05-16T23:39:44.377Z,65.32
2023-05-16T23:44:47.352Z,67.21
2023-05-16T23:49:50.334Z,63.21
2023-05-16T23:54:53.327Z,60.29
2023-05-16T23:59:56.616Z,56.51
